Ourilandia Do Norte, Brazil
Current Conditions -  °F | °C
As of 5:00 AM on Saturday 25 Oct 2014 (Local Time) from SBMA Reporting Station
Scattered Clouds Scattered Clouds  
Wind Chill: 75°   Ceiling: Unl
Heat Index: 75°   Visibility: 6mi
Dew Point: 75°   Wind: 1mph
Humidity: 100%   Direction: 90°E
Pressure: 29.77"   Gusts: NA
Location:  6.75°S, 51.08°W
Report Text: SBMA 250800Z 09001KT 9999 SCT017 24/24 Q1008
Loading
Personal Weather Stations






























Interactive Weather Map
Tropical Storm Tracking
New forecast layout! Learn more

10-Day Weather Forecast

Advertisements
Track Severe Weather on mobile